sensor_id;sensor_type;location;lat;lon;timestamp;P1;durP1;ratioP1;P2;durP2;ratioP2
2944;SDS011;1482;51.398;7.128;2024-02-21T00:02:07;22.80;;;11.40;;
2944;SDS011;1482;51.398;7.128;2024-02-21T00:04:32;25.73;;;12.23;;
2944;SDS011;1482;51.398;7.128;2024-02-21T00:06:58;24.90;;;12.03;;
2944;SDS011;1482;51.398;7.128;2024-02-21T00:09:24;38.07;;;13.63;;
2944;SDS011;1482;51.398;7.128;2024-02-21T00:11:49;24.33;;;10.70;;
2944;SDS011;1482;51.398;7.128;2024-02-21T00:14:18;25.23;;;11.80;;
2944;SDS011;1482;51.398;7.128;2024-02-21T00:16:43;27.43;;;12.40;;
2944;SDS011;1482;51.398;7.128;2024-02-21T00:19:09;21.17;;;11.20;;
2944;SDS011;1482;51.398;7.128;2024-02-21T00:21:34;27.60;;;13.40;;
2944;SDS011;1482;51.398;7.128;2024-02-21T00:24:00;29.73;;;14.67;;
2944;SDS011;1482;51.398;7.128;2024-02-21T00:26:25;25.23;;;12.80;;
2944;SDS011;1482;51.398;7.128;2024-02-21T00:28:51;23.63;;;12.60;;
2944;SDS011;1482;51.398;7.128;2024-02-21T00:31:16;31.93;;;12.40;;
2944;SDS011;1482;51.398;7.128;2024-02-21T00:33:42;23.37;;;14.43;;
2944;SDS011;1482;51.398;7.128;2024-02-21T00:36:07;26.87;;;14.10;;
2944;SDS011;1482;51.398;7.128;2024-02-21T00:38:33;24.97;;;11.03;;
2944;SDS011;1482;51.398;7.128;2024-02-21T00:40:58;35.50;;;14.17;;
2944;SDS011;1482;51.398;7.128;2024-02-21T00:43:24;26.73;;;11.50;;
2944;SDS011;1482;51.398;7.128;2024-02-21T00:45:50;27.23;;;12.43;;
2944;SDS011;1482;51.398;7.128;2024-02-21T00:48:15;24.00;;;12.10;;
2944;SDS011;1482;51.398;7.128;2024-02-21T00:50:41;30.60;;;15.43;;
2944;SDS011;1482;51.398;7.128;2024-02-21T00:53:07;30.10;;;13.80;;
2944;SDS011;1482;51.398;7.128;2024-02-21T00:55:32;24.70;;;10.63;;
2944;SDS011;1482;51.398;7.128;2024-02-21T00:57:58;23.90;;;11.47;;
2944;SDS011;1482;51.398;7.128;2024-02-21T01:00:23;24.60;;;11.30;;
2944;SDS011;1482;51.398;7.128;2024-02-21T01:02:49;29.60;;;13.30;;
2944;SDS011;1482;51.398;7.128;2024-02-21T01:05:14;32.30;;;12.40;;
2944;SDS011;1482;51.398;7.128;2024-02-21T01:07:40;22.37;;;11.10;;
2944;SDS011;1482;51.398;7.128;2024-02-21T01:10:06;24.40;;;12.63;;
2944;SDS011;1482;51.398;7.128;2024-02-21T01:12:32;28.90;;;13.57;;
2944;SDS011;1482;51.398;7.128;2024-02-21T01:14:57;20.97;;;11.30;;
2944;SDS011;1482;51.398;7.128;2024-02-21T01:17:23;29.60;;;11.93;;
2944;SDS011;1482;51.398;7.128;2024-02-21T01:19:48;29.60;;;12.10;;
2944;SDS011;1482;51.398;7.128;2024-02-21T01:22:14;18.60;;;12.53;;
2944;SDS011;1482;51.398;7.128;2024-02-21T01:24:40;29.90;;;13.20;;
2944;SDS011;1482;51.398;7.128;2024-02-21T01:27:06;27.27;;;14.77;;
2944;SDS011;1482;51.398;7.128;2024-02-21T01:29:32;22.83;;;11.93;;
2944;SDS011;1482;51.398;7.128;2024-02-21T01:31:57;27.63;;;12.83;;
2944;SDS011;1482;51.398;7.128;2024-02-21T01:34:23;23.67;;;12.00;;
2944;SDS011;1482;51.398;7.128;2024-02-21T01:36:49;30.43;;;12.63;;
2944;SDS011;1482;51.398;7.128;2024-02-21T01:39:14;34.30;;;12.03;;
2944;SDS011;1482;51.398;7.128;2024-02-21T01:41:40;32.03;;;14.30;;
2944;SDS011;1482;51.398;7.128;2024-02-21T01:44:05;27.03;;;12.10;;
2944;SDS011;1482;51.398;7.128;2024-02-21T01:46:31;28.70;;;12.47;;
2944;SDS011;1482;51.398;7.128;2024-02-21T01:48:57;23.07;;;10.00;;
2944;SDS011;1482;51.398;7.128;2024-02-21T01:51:25;26.17;;;12.13;;
2944;SDS011;1482;51.398;7.128;2024-02-21T01:53:51;24.40;;;11.37;;
2944;SDS011;1482;51.398;7.128;2024-02-21T01:56:18;27.47;;;12.90;;
2944;SDS011;1482;51.398;7.128;2024-02-21T01:58:44;28.07;;;11.50;;
2944;SDS011;1482;51.398;7.128;2024-02-21T02:01:11;22.43;;;10.93;;
2944;SDS011;1482;51.398;7.128;2024-02-21T02:03:37;31.40;;;12.10;;
2944;SDS011;1482;51.398;7.128;2024-02-21T02:06:04;21.40;;;11.53;;
2944;SDS011;1482;51.398;7.128;2024-02-21T02:08:30;28.20;;;11.97;;
2944;SDS011;1482;51.398;7.128;2024-02-21T02:10:57;28.47;;;11.20;;
2944;SDS011;1482;51.398;7.128;2024-02-21T02:13:22;25.07;;;11.80;;
2944;SDS011;1482;51.398;7.128;2024-02-21T02:15:48;28.47;;;12.13;;
2944;SDS011;1482;51.398;7.128;2024-02-21T02:18:15;27.60;;;12.03;;
2944;SDS011;1482;51.398;7.128;2024-02-21T02:20:41;25.33;;;11.17;;
2944;SDS011;1482;51.398;7.128;2024-02-21T02:25:46;23.10;;;10.90;;
2944;SDS011;1482;51.398;7.128;2024-02-21T02:28:17;25.17;;;11.67;;
2944;SDS011;1482;51.398;7.128;2024-02-21T02:30:43;28.57;;;11.33;;
2944;SDS011;1482;51.398;7.128;2024-02-21T02:33:11;33.93;;;11.50;;
2944;SDS011;1482;51.398;7.128;2024-02-21T02:35:36;31.83;;;11.67;;
2944;SDS011;1482;51.398;7.128;2024-02-21T02:38:02;20.40;;;12.83;;
2944;SDS011;1482;51.398;7.128;2024-02-21T02:40:29;24.57;;;12.90;;
2944;SDS011;1482;51.398;7.128;2024-02-21T02:42:54;25.23;;;11.60;;
2944;SDS011;1482;51.398;7.128;2024-02-21T02:45:21;40.50;;;12.30;;
2944;SDS011;1482;51.398;7.128;2024-02-21T02:47:51;19.03;;;10.93;;
2944;SDS011;1482;51.398;7.128;2024-02-21T02:50:19;28.50;;;12.90;;
2944;SDS011;1482;51.398;7.128;2024-02-21T02:52:45;23.37;;;11.43;;
2944;SDS011;1482;51.398;7.128;2024-02-21T02:55:10;22.10;;;13.03;;
2944;SDS011;1482;51.398;7.128;2024-02-21T02:57:36;22.33;;;10.23;;
2944;SDS011;1482;51.398;7.128;2024-02-21T03:00:01;21.53;;;10.13;;
2944;SDS011;1482;51.398;7.128;2024-02-21T03:02:27;21.90;;;11.80;;
2944;SDS011;1482;51.398;7.128;2024-02-21T03:04:53;15.70;;;10.93;;
2944;SDS011;1482;51.398;7.128;2024-02-21T03:07:20;24.23;;;12.20;;
2944;SDS011;1482;51.398;7.128;2024-02-21T03:09:45;27.00;;;11.00;;
2944;SDS011;1482;51.398;7.128;2024-02-21T03:12:11;31.83;;;11.90;;
2944;SDS011;1482;51.398;7.128;2024-02-21T03:14:37;28.67;;;12.10;;
2944;SDS011;1482;51.398;7.128;2024-02-21T03:17:02;29.67;;;11.90;;
2944;SDS011;1482;51.398;7.128;2024-02-21T03:19:28;22.03;;;11.70;;
2944;SDS011;1482;51.398;7.128;2024-02-21T03:21:54;27.40;;;13.30;;
2944;SDS011;1482;51.398;7.128;2024-02-21T03:24:20;15.20;;;10.00;;
2944;SDS011;1482;51.398;7.128;2024-02-21T03:26:46;19.00;;;10.67;;
2944;SDS011;1482;51.398;7.128;2024-02-21T03:29:14;21.97;;;9.87;;
2944;SDS011;1482;51.398;7.128;2024-02-21T03:31:40;20.30;;;10.37;;
2944;SDS011;1482;51.398;7.128;2024-02-21T03:34:06;19.73;;;10.53;;
2944;SDS011;1482;51.398;7.128;2024-02-21T03:36:31;28.73;;;11.30;;
2944;SDS011;1482;51.398;7.128;2024-02-21T03:38:57;15.43;;;10.00;;
2944;SDS011;1482;51.398;7.128;2024-02-21T03:41:22;17.70;;;10.23;;
2944;SDS011;1482;51.398;7.128;2024-02-21T03:43:48;19.90;;;9.57;;
2944;SDS011;1482;51.398;7.128;2024-02-21T03:46:14;14.63;;;9.23;;
2944;SDS011;1482;51.398;7.128;2024-02-21T03:48:40;20.03;;;10.03;;
2944;SDS011;1482;51.398;7.128;2024-02-21T03:51:06;24.07;;;10.03;;
2944;SDS011;1482;51.398;7.128;2024-02-21T03:53:31;22.40;;;10.20;;
2944;SDS011;1482;51.398;7.128;2024-02-21T03:56:00;20.60;;;11.00;;
2944;SDS011;1482;51.398;7.128;2024-02-21T03:58:28;21.00;;;12.57;;
2944;SDS011;1482;51.398;7.128;2024-02-21T04:00:59;18.50;;;9.47;;
2944;SDS011;1482;51.398;7.128;2024-02-21T04:03:26;21.40;;;11.57;;
2944;SDS011;1482;51.398;7.128;2024-02-21T04:05:51;19.63;;;9.47;;
2944;SDS011;1482;51.398;7.128;2024-02-21T04:08:17;17.17;;;9.53;;
2944;SDS011;1482;51.398;7.128;2024-02-21T04:10:42;20.53;;;10.23;;
2944;SDS011;1482;51.398;7.128;2024-02-21T04:13:08;15.43;;;11.20;;
2944;SDS011;1482;51.398;7.128;2024-02-21T04:15:34;27.93;;;10.97;;
2944;SDS011;1482;51.398;7.128;2024-02-21T04:18:00;20.10;;;10.73;;
2944;SDS011;1482;51.398;7.128;2024-02-21T04:20:26;18.67;;;10.60;;
2944;SDS011;1482;51.398;7.128;2024-02-21T04:22:52;19.10;;;9.77;;
2944;SDS011;1482;51.398;7.128;2024-02-21T04:25:17;13.90;;;8.60;;
2944;SDS011;1482;51.398;7.128;2024-02-21T04:27:44;14.00;;;8.33;;
2944;SDS011;1482;51.398;7.128;2024-02-21T04:30:09;15.03;;;9.30;;
2944;SDS011;1482;51.398;7.128;2024-02-21T04:32:35;24.30;;;9.70;;
2944;SDS011;1482;51.398;7.128;2024-02-21T04:35:01;25.47;;;10.33;;
2944;SDS011;1482;51.398;7.128;2024-02-21T04:37:26;16.90;;;9.87;;
2944;SDS011;1482;51.398;7.128;2024-02-21T04:39:52;23.30;;;10.10;;
2944;SDS011;1482;51.398;7.128;2024-02-21T04:42:18;23.80;;;10.37;;
2944;SDS011;1482;51.398;7.128;2024-02-21T04:44:43;14.40;;;9.20;;
2944;SDS011;1482;51.398;7.128;2024-02-21T04:47:09;14.97;;;8.67;;
2944;SDS011;1482;51.398;7.128;2024-02-21T04:49:34;21.10;;;9.27;;
2944;SDS011;1482;51.398;7.128;2024-02-21T04:52:00;17.27;;;10.23;;
2944;SDS011;1482;51.398;7.128;2024-02-21T04:54:26;18.77;;;9.00;;
2944;SDS011;1482;51.398;7.128;2024-02-21T04:56:52;20.03;;;9.97;;
2944;SDS011;1482;51.398;7.128;2024-02-21T04:59:17;14.73;;;8.80;;
2944;SDS011;1482;51.398;7.128;2024-02-21T05:01:43;14.67;;;9.97;;
2944;SDS011;1482;51.398;7.128;2024-02-21T05:04:08;19.93;;;9.20;;
2944;SDS011;1482;51.398;7.128;2024-02-21T05:06:38;18.00;;;9.40;;
2944;SDS011;1482;51.398;7.128;2024-02-21T05:09:07;21.10;;;8.23;;
2944;SDS011;1482;51.398;7.128;2024-02-21T05:11:33;19.33;;;8.23;;
2944;SDS011;1482;51.398;7.128;2024-02-21T05:13:59;17.83;;;9.07;;
2944;SDS011;1482;51.398;7.128;2024-02-21T05:16:25;20.70;;;8.13;;
2944;SDS011;1482;51.398;7.128;2024-02-21T05:18:50;15.97;;;8.40;;
2944;SDS011;1482;51.398;7.128;2024-02-21T05:21:16;17.03;;;9.53;;
2944;SDS011;1482;51.398;7.128;2024-02-21T05:23:41;13.43;;;8.20;;
2944;SDS011;1482;51.398;7.128;2024-02-21T05:26:07;20.03;;;9.80;;
2944;SDS011;1482;51.398;7.128;2024-02-21T05:28:32;17.33;;;8.57;;
2944;SDS011;1482;51.398;7.128;2024-02-21T05:30:58;10.73;;;7.43;;
2944;SDS011;1482;51.398;7.128;2024-02-21T05:33:24;15.03;;;7.83;;
2944;SDS011;1482;51.398;7.128;2024-02-21T05:35:50;12.07;;;8.70;;
2944;SDS011;1482;51.398;7.128;2024-02-21T05:38:16;14.20;;;7.80;;
2944;SDS011;1482;51.398;7.128;2024-02-21T05:40:41;21.07;;;8.13;;
2944;SDS011;1482;51.398;7.128;2024-02-21T05:43:08;13.80;;;8.23;;
2944;SDS011;1482;51.398;7.128;2024-02-21T05:45:33;18.23;;;9.47;;
2944;SDS011;1482;51.398;7.128;2024-02-21T05:47:59;12.67;;;8.53;;
2944;SDS011;1482;51.398;7.128;2024-02-21T05:50:25;14.87;;;9.40;;
2944;SDS011;1482;51.398;7.128;2024-02-21T05:52:52;15.30;;;8.57;;
2944;SDS011;1482;51.398;7.128;2024-02-21T05:55:19;20.50;;;8.13;;
2944;SDS011;1482;51.398;7.128;2024-02-21T05:57:44;16.33;;;8.70;;
2944;SDS011;1482;51.398;7.128;2024-02-21T06:00:10;13.33;;;6.47;;
2944;SDS011;1482;51.398;7.128;2024-02-21T06:02:36;11.53;;;7.10;;
2944;SDS011;1482;51.398;7.128;2024-02-21T06:05:02;20.73;;;7.77;;
2944;SDS011;1482;51.398;7.128;2024-02-21T06:07:27;17.13;;;6.80;;
2944;SDS011;1482;51.398;7.128;2024-02-21T06:09:53;16.30;;;6.30;;
2944;SDS011;1482;51.398;7.128;2024-02-21T06:12:18;9.63;;;6.23;;
2944;SDS011;1482;51.398;7.128;2024-02-21T06:14:44;14.23;;;7.90;;
2944;SDS011;1482;51.398;7.128;2024-02-21T06:17:10;10.23;;;6.50;;
2944;SDS011;1482;51.398;7.128;2024-02-21T06:19:37;19.13;;;6.87;;
2944;SDS011;1482;51.398;7.128;2024-02-21T06:22:05;7.97;;;5.17;;
2944;SDS011;1482;51.398;7.128;2024-02-21T06:24:32;15.80;;;7.13;;
2944;SDS011;1482;51.398;7.128;2024-02-21T06:26:59;13.87;;;7.90;;
2944;SDS011;1482;51.398;7.128;2024-02-21T06:29:24;17.40;;;7.00;;
2944;SDS011;1482;51.398;7.128;2024-02-21T06:31:50;16.57;;;6.80;;
2944;SDS011;1482;51.398;7.128;2024-02-21T06:34:15;11.67;;;6.77;;
2944;SDS011;1482;51.398;7.128;2024-02-21T06:36:41;9.90;;;6.20;;
2944;SDS011;1482;51.398;7.128;2024-02-21T06:39:07;7.93;;;5.97;;
2944;SDS011;1482;51.398;7.128;2024-02-21T06:41:33;9.70;;;6.07;;
2944;SDS011;1482;51.398;7.128;2024-02-21T06:43:59;8.50;;;6.00;;
2944;SDS011;1482;51.398;7.128;2024-02-21T06:46:28;7.70;;;5.40;;
2944;SDS011;1482;51.398;7.128;2024-02-21T06:48:54;17.73;;;6.33;;
2944;SDS011;1482;51.398;7.128;2024-02-21T06:51:21;8.67;;;5.60;;
2944;SDS011;1482;51.398;7.128;2024-02-21T06:53:47;11.00;;;5.97;;
2944;SDS011;1482;51.398;7.128;2024-02-21T06:56:13;14.63;;;5.60;;
2944;SDS011;1482;51.398;7.128;2024-02-21T06:58:38;20.60;;;7.33;;
2944;SDS011;1482;51.398;7.128;2024-02-21T07:01:04;12.10;;;6.73;;
2944;SDS011;1482;51.398;7.128;2024-02-21T07:03:30;11.73;;;6.23;;
2944;SDS011;1482;51.398;7.128;2024-02-21T07:05:55;12.53;;;7.63;;
2944;SDS011;1482;51.398;7.128;2024-02-21T07:08:21;10.03;;;6.17;;
2944;SDS011;1482;51.398;7.128;2024-02-21T07:10:46;13.23;;;6.33;;
2944;SDS011;1482;51.398;7.128;2024-02-21T07:13:12;14.87;;;6.83;;
2944;SDS011;1482;51.398;7.128;2024-02-21T07:15:38;9.70;;;6.83;;
2944;SDS011;1482;51.398;7.128;2024-02-21T07:18:04;14.27;;;6.20;;
2944;SDS011;1482;51.398;7.128;2024-02-21T07:20:29;8.73;;;6.53;;
2944;SDS011;1482;51.398;7.128;2024-02-21T07:22:55;9.50;;;5.80;;
2944;SDS011;1482;51.398;7.128;2024-02-21T07:25:20;19.13;;;8.53;;
2944;SDS011;1482;51.398;7.128;2024-02-21T07:27:46;12.80;;;6.60;;
2944;SDS011;1482;51.398;7.128;2024-02-21T07:30:11;12.20;;;6.10;;
2944;SDS011;1482;51.398;7.128;2024-02-21T07:32:37;15.93;;;7.20;;
2944;SDS011;1482;51.398;7.128;2024-02-21T07:35:03;9.47;;;7.37;;
2944;SDS011;1482;51.398;7.128;2024-02-21T07:37:30;10.40;;;5.43;;
2944;SDS011;1482;51.398;7.128;2024-02-21T07:39:56;20.67;;;8.27;;
2944;SDS011;1482;51.398;7.128;2024-02-21T07:42:21;17.73;;;6.40;;
2944;SDS011;1482;51.398;7.128;2024-02-21T07:44:47;17.10;;;7.00;;
2944;SDS011;1482;51.398;7.128;2024-02-21T07:47:12;16.03;;;5.67;;
2944;SDS011;1482;51.398;7.128;2024-02-21T07:49:42;14.60;;;7.00;;
2944;SDS011;1482;51.398;7.128;2024-02-21T07:52:11;8.33;;;5.67;;
2944;SDS011;1482;51.398;7.128;2024-02-21T07:54:36;12.77;;;6.40;;
2944;SDS011;1482;51.398;7.128;2024-02-21T07:57:02;17.03;;;6.43;;
2944;SDS011;1482;51.398;7.128;2024-02-21T07:59:29;9.40;;;5.57;;
2944;SDS011;1482;51.398;7.128;2024-02-21T08:01:57;11.43;;;5.20;;
2944;SDS011;1482;51.398;7.128;2024-02-21T08:04:23;10.67;;;6.47;;
2944;SDS011;1482;51.398;7.128;2024-02-21T08:06:52;12.73;;;5.27;;
2944;SDS011;1482;51.398;7.128;2024-02-21T08:09:19;13.40;;;5.47;;
2944;SDS011;1482;51.398;7.128;2024-02-21T08:11:44;12.40;;;5.30;;
2944;SDS011;1482;51.398;7.128;2024-02-21T08:14:10;9.20;;;5.10;;
2944;SDS011;1482;51.398;7.128;2024-02-21T08:16:35;14.60;;;5.17;;
2944;SDS011;1482;51.398;7.128;2024-02-21T08:19:01;7.20;;;4.60;;
2944;SDS011;1482;51.398;7.128;2024-02-21T08:21:29;17.23;;;5.40;;
2944;SDS011;1482;51.398;7.128;2024-02-21T08:23:54;7.97;;;4.90;;
2944;SDS011;1482;51.398;7.128;2024-02-21T08:26:20;12.50;;;4.67;;
2944;SDS011;1482;51.398;7.128;2024-02-21T08:28:45;6.70;;;4.33;;
2944;SDS011;1482;51.398;7.128;2024-02-21T08:31:17;11.37;;;5.57;;
2944;SDS011;1482;51.398;7.128;2024-02-21T08:33:48;7.10;;;4.17;;
2944;SDS011;1482;51.398;7.128;2024-02-21T08:36:19;8.00;;;4.90;;
2944;SDS011;1482;51.398;7.128;2024-02-21T08:38:45;11.33;;;4.93;;
2944;SDS011;1482;51.398;7.128;2024-02-21T08:41:11;10.20;;;4.90;;
2944;SDS011;1482;51.398;7.128;2024-02-21T08:43:37;9.20;;;5.23;;
2944;SDS011;1482;51.398;7.128;2024-02-21T08:46:03;14.60;;;4.93;;
2944;SDS011;1482;51.398;7.128;2024-02-21T08:48:29;10.30;;;4.90;;
2944;SDS011;1482;51.398;7.128;2024-02-21T08:50:54;8.87;;;5.30;;
2944;SDS011;1482;51.398;7.128;2024-02-21T08:53:20;13.17;;;5.13;;
2944;SDS011;1482;51.398;7.128;2024-02-21T08:55:45;9.40;;;5.90;;
2944;SDS011;1482;51.398;7.128;2024-02-21T08:58:11;11.33;;;5.50;;
2944;SDS011;1482;51.398;7.128;2024-02-21T09:00:37;8.60;;;5.67;;
2944;SDS011;1482;51.398;7.128;2024-02-21T09:03:02;13.83;;;5.60;;
2944;SDS011;1482;51.398;7.128;2024-02-21T09:05:28;15.40;;;6.20;;
2944;SDS011;1482;51.398;7.128;2024-02-21T09:07:54;12.93;;;6.40;;
2944;SDS011;1482;51.398;7.128;2024-02-21T09:10:20;10.97;;;5.90;;
2944;SDS011;1482;51.398;7.128;2024-02-21T09:12:46;14.57;;;6.63;;
2944;SDS011;1482;51.398;7.128;2024-02-21T09:15:12;16.70;;;6.20;;
2944;SDS011;1482;51.398;7.128;2024-02-21T09:17:38;13.87;;;8.03;;
2944;SDS011;1482;51.398;7.128;2024-02-21T09:20:04;17.63;;;6.70;;
2944;SDS011;1482;51.398;7.128;2024-02-21T09:22:31;14.87;;;6.00;;
2944;SDS011;1482;51.398;7.128;2024-02-21T09:24:59;14.17;;;5.77;;
2944;SDS011;1482;51.398;7.128;2024-02-21T09:27:25;16.10;;;6.67;;
2944;SDS011;1482;51.398;7.128;2024-02-21T09:29:51;23.73;;;8.07;;
2944;SDS011;1482;51.398;7.128;2024-02-21T09:32:17;15.17;;;7.10;;
2944;SDS011;1482;51.398;7.128;2024-02-21T09:34:44;20.77;;;7.33;;
2944;SDS011;1482;51.398;7.128;2024-02-21T09:37:10;15.03;;;6.70;;
2944;SDS011;1482;51.398;7.128;2024-02-21T09:39:35;23.80;;;9.20;;
2944;SDS011;1482;51.398;7.128;2024-02-21T09:42:03;15.27;;;7.00;;
2944;SDS011;1482;51.398;7.128;2024-02-21T09:44:37;18.40;;;7.13;;
2944;SDS011;1482;51.398;7.128;2024-02-21T09:47:04;10.30;;;5.50;;
2944;SDS011;1482;51.398;7.128;2024-02-21T09:49:35;16.50;;;6.87;;
2944;SDS011;1482;51.398;7.128;2024-02-21T09:52:04;11.07;;;7.03;;
2944;SDS011;1482;51.398;7.128;2024-02-21T09:54:32;11.10;;;6.30;;
2944;SDS011;1482;51.398;7.128;2024-02-21T09:57:01;14.87;;;6.13;;
2944;SDS011;1482;51.398;7.128;2024-02-21T09:59:28;24.23;;;7.90;;
2944;SDS011;1482;51.398;7.128;2024-02-21T10:01:55;22.07;;;7.73;;
2944;SDS011;1482;51.398;7.128;2024-02-21T10:04:21;14.50;;;7.53;;
2944;SDS011;1482;51.398;7.128;2024-02-21T10:06:47;13.70;;;7.70;;
2944;SDS011;1482;51.398;7.128;2024-02-21T10:09:22;11.13;;;6.83;;
2944;SDS011;1482;51.398;7.128;2024-02-21T10:11:55;13.30;;;7.10;;
2944;SDS011;1482;51.398;7.128;2024-02-21T10:14:21;14.33;;;7.20;;
2944;SDS011;1482;51.398;7.128;2024-02-21T10:16:47;15.70;;;8.50;;
2944;SDS011;1482;51.398;7.128;2024-02-21T10:19:20;19.20;;;7.63;;
2944;SDS011;1482;51.398;7.128;2024-02-21T10:22:03;14.00;;;7.27;;
2944;SDS011;1482;51.398;7.128;2024-02-21T10:24:29;21.63;;;7.77;;
2944;SDS011;1482;51.398;7.128;2024-02-21T10:29:28;11.10;;;6.97;;
2944;SDS011;1482;51.398;7.128;2024-02-21T10:32:11;10.73;;;5.83;;
2944;SDS011;1482;51.398;7.128;2024-02-21T10:34:38;13.27;;;6.50;;
2944;SDS011;1482;51.398;7.128;2024-02-21T10:37:06;11.10;;;6.40;;
2944;SDS011;1482;51.398;7.128;2024-02-21T10:39:33;13.07;;;7.20;;
2944;SDS011;1482;51.398;7.128;2024-02-21T10:42:00;11.70;;;6.83;;
2944;SDS011;1482;51.398;7.128;2024-02-21T10:44:30;11.20;;;5.63;;
2944;SDS011;1482;51.398;7.128;2024-02-21T10:46:57;8.17;;;6.10;;
2944;SDS011;1482;51.398;7.128;2024-02-21T10:49:23;9.07;;;6.33;;
2944;SDS011;1482;51.398;7.128;2024-02-21T10:51:56;7.80;;;6.73;;
2944;SDS011;1482;51.398;7.128;2024-02-21T10:54:36;8.33;;;6.60;;
2944;SDS011;1482;51.398;7.128;2024-02-21T10:57:08;13.50;;;6.37;;
2944;SDS011;1482;51.398;7.128;2024-02-21T10:59:36;6.27;;;5.50;;
2944;SDS011;1482;51.398;7.128;2024-02-21T11:02:03;8.87;;;5.77;;
2944;SDS011;1482;51.398;7.128;2024-02-21T11:04:29;10.77;;;6.87;;
2944;SDS011;1482;51.398;7.128;2024-02-21T11:06:56;8.80;;;6.80;;
2944;SDS011;1482;51.398;7.128;2024-02-21T11:09:29;7.30;;;5.93;;
2944;SDS011;1482;51.398;7.128;2024-02-21T11:12:02;9.90;;;6.33;;
2944;SDS011;1482;51.398;7.128;2024-02-21T11:14:30;7.00;;;5.93;;
2944;SDS011;1482;51.398;7.128;2024-02-21T11:17:00;7.47;;;5.97;;
2944;SDS011;1482;51.398;7.128;2024-02-21T11:19:27;9.93;;;5.97;;
2944;SDS011;1482;51.398;7.128;2024-02-21T11:21:54;11.77;;;5.80;;
2944;SDS011;1482;51.398;7.128;2024-02-21T11:24:33;9.60;;;5.83;;
2944;SDS011;1482;51.398;7.128;2024-02-21T11:27:11;9.27;;;5.53;;
2944;SDS011;1482;51.398;7.128;2024-02-21T11:29:42;8.33;;;5.50;;
2944;SDS011;1482;51.398;7.128;2024-02-21T11:32:09;6.73;;;4.83;;
2944;SDS011;1482;51.398;7.128;2024-02-21T11:34:36;13.03;;;6.13;;
2944;SDS011;1482;51.398;7.128;2024-02-21T11:37:02;6.07;;;4.40;;
2944;SDS011;1482;51.398;7.128;2024-02-21T11:39:38;10.27;;;5.57;;
2944;SDS011;1482;51.398;7.128;2024-02-21T11:42:07;10.27;;;4.57;;
2944;SDS011;1482;51.398;7.128;2024-02-21T11:44:34;9.27;;;4.53;;
2944;SDS011;1482;51.398;7.128;2024-02-21T11:47:03;16.00;;;7.70;;
2944;SDS011;1482;51.398;7.128;2024-02-21T11:49:29;9.50;;;4.40;;
2944;SDS011;1482;51.398;7.128;2024-02-21T11:51:59;13.57;;;4.80;;
2944;SDS011;1482;51.398;7.128;2024-02-21T11:54:26;7.87;;;4.67;;
2944;SDS011;1482;51.398;7.128;2024-02-21T11:56:52;9.13;;;4.17;;
2944;SDS011;1482;51.398;7.128;2024-02-21T11:59:18;9.47;;;4.47;;
2944;SDS011;1482;51.398;7.128;2024-02-21T12:01:44;9.33;;;4.50;;
2944;SDS011;1482;51.398;7.128;2024-02-21T12:04:10;7.67;;;4.00;;
2944;SDS011;1482;51.398;7.128;2024-02-21T12:06:35;10.17;;;4.30;;
2944;SDS011;1482;51.398;7.128;2024-02-21T12:09:01;10.37;;;4.23;;
2944;SDS011;1482;51.398;7.128;2024-02-21T12:11:26;9.70;;;3.63;;
2944;SDS011;1482;51.398;7.128;2024-02-21T12:13:59;10.53;;;4.30;;
2944;SDS011;1482;51.398;7.128;2024-02-21T12:16:27;7.27;;;3.67;;
2944;SDS011;1482;51.398;7.128;2024-02-21T12:18:54;11.80;;;3.37;;
2944;SDS011;1482;51.398;7.128;2024-02-21T12:21:19;14.17;;;6.07;;
2944;SDS011;1482;51.398;7.128;2024-02-21T12:23:49;12.00;;;4.03;;
2944;SDS011;1482;51.398;7.128;2024-02-21T12:26:14;8.10;;;4.47;;
2944;SDS011;1482;51.398;7.128;2024-02-21T12:28:40;10.90;;;3.67;;
2944;SDS011;1482;51.398;7.128;2024-02-21T12:31:05;5.90;;;3.50;;
2944;SDS011;1482;51.398;7.128;2024-02-21T12:33:31;5.90;;;3.40;;
2944;SDS011;1482;51.398;7.128;2024-02-21T12:35:58;6.43;;;3.40;;
2944;SDS011;1482;51.398;7.128;2024-02-21T12:38:23;10.00;;;4.20;;
2944;SDS011;1482;51.398;7.128;2024-02-21T12:40:49;4.57;;;3.30;;
2944;SDS011;1482;51.398;7.128;2024-02-21T12:43:14;7.70;;;4.07;;
2944;SDS011;1482;51.398;7.128;2024-02-21T12:45:40;11.00;;;3.20;;
2944;SDS011;1482;51.398;7.128;2024-02-21T12:48:05;6.50;;;3.67;;
2944;SDS011;1482;51.398;7.128;2024-02-21T12:50:31;11.47;;;4.50;;
2944;SDS011;1482;51.398;7.128;2024-02-21T12:52:57;11.53;;;2.67;;
2944;SDS011;1482;51.398;7.128;2024-02-21T12:55:23;7.43;;;3.80;;
2944;SDS011;1482;51.398;7.128;2024-02-21T12:57:49;10.07;;;3.33;;
2944;SDS011;1482;51.398;7.128;2024-02-21T13:00:14;6.83;;;4.03;;
2944;SDS011;1482;51.398;7.128;2024-02-21T13:02:40;12.00;;;4.80;;
2944;SDS011;1482;51.398;7.128;2024-02-21T13:05:06;6.30;;;2.90;;
2944;SDS011;1482;51.398;7.128;2024-02-21T13:07:32;6.63;;;3.30;;
2944;SDS011;1482;51.398;7.128;2024-02-21T13:09:58;4.70;;;3.50;;
2944;SDS011;1482;51.398;7.128;2024-02-21T13:12:24;7.43;;;3.07;;
2944;SDS011;1482;51.398;7.128;2024-02-21T13:14:52;5.53;;;2.77;;
2944;SDS011;1482;51.398;7.128;2024-02-21T13:17:18;6.63;;;3.43;;
2944;SDS011;1482;51.398;7.128;2024-02-21T13:19:43;6.30;;;2.63;;
2944;SDS011;1482;51.398;7.128;2024-02-21T13:22:09;8.80;;;3.70;;
2944;SDS011;1482;51.398;7.128;2024-02-21T13:24:34;7.67;;;3.17;;
2944;SDS011;1482;51.398;7.128;2024-02-21T13:27:00;9.73;;;3.50;;
2944;SDS011;1482;51.398;7.128;2024-02-21T13:29:25;7.03;;;3.30;;
2944;SDS011;1482;51.398;7.128;2024-02-21T13:31:51;7.57;;;3.33;;
2944;SDS011;1482;51.398;7.128;2024-02-21T13:34:17;14.57;;;3.20;;
2944;SDS011;1482;51.398;7.128;2024-02-21T13:36:42;7.93;;;2.87;;
2944;SDS011;1482;51.398;7.128;2024-02-21T13:39:08;9.60;;;3.70;;
2944;SDS011;1482;51.398;7.128;2024-02-21T13:41:37;5.60;;;3.33;;
2944;SDS011;1482;51.398;7.128;2024-02-21T13:44:03;7.27;;;3.27;;
2944;SDS011;1482;51.398;7.128;2024-02-21T13:46:28;7.63;;;3.13;;
2944;SDS011;1482;51.398;7.128;2024-02-21T13:49:01;9.67;;;2.87;;
2944;SDS011;1482;51.398;7.128;2024-02-21T13:51:32;6.40;;;3.80;;
2944;SDS011;1482;51.398;7.128;2024-02-21T13:54:01;7.63;;;3.27;;
2944;SDS011;1482;51.398;7.128;2024-02-21T13:56:30;12.30;;;4.57;;
2944;SDS011;1482;51.398;7.128;2024-02-21T13:58:55;14.57;;;3.30;;
2944;SDS011;1482;51.398;7.128;2024-02-21T14:01:23;6.10;;;2.97;;
2944;SDS011;1482;51.398;7.128;2024-02-21T14:03:48;8.13;;;3.70;;
2944;SDS011;1482;51.398;7.128;2024-02-21T14:06:14;5.23;;;2.90;;
2944;SDS011;1482;51.398;7.128;2024-02-21T14:08:39;5.60;;;3.23;;
2944;SDS011;1482;51.398;7.128;2024-02-21T14:11:05;4.57;;;2.90;;
2944;SDS011;1482;51.398;7.128;2024-02-21T14:13:32;5.37;;;3.50;;
2944;SDS011;1482;51.398;7.128;2024-02-21T14:15:57;10.20;;;3.70;;
2944;SDS011;1482;51.398;7.128;2024-02-21T14:18:23;12.77;;;3.50;;
2944;SDS011;1482;51.398;7.128;2024-02-21T14:20:48;5.07;;;2.80;;
2944;SDS011;1482;51.398;7.128;2024-02-21T14:23:14;7.40;;;2.30;;
2944;SDS011;1482;51.398;7.128;2024-02-21T14:25:39;5.07;;;2.80;;
2944;SDS011;1482;51.398;7.128;2024-02-21T14:28:07;8.00;;;3.20;;
2944;SDS011;1482;51.398;7.128;2024-02-21T14:30:34;7.93;;;3.10;;
2944;SDS011;1482;51.398;7.128;2024-02-21T14:33:00;5.53;;;2.30;;
2944;SDS011;1482;51.398;7.128;2024-02-21T14:35:25;7.37;;;2.70;;
2944;SDS011;1482;51.398;7.128;2024-02-21T14:37:51;10.13;;;3.83;;
2944;SDS011;1482;51.398;7.128;2024-02-21T14:40:18;16.50;;;3.83;;
2944;SDS011;1482;51.398;7.128;2024-02-21T14:42:45;5.73;;;3.17;;
2944;SDS011;1482;51.398;7.128;2024-02-21T14:45:11;19.83;;;11.23;;
2944;SDS011;1482;51.398;7.128;2024-02-21T14:47:36;39.23;;;18.50;;
2944;SDS011;1482;51.398;7.128;2024-02-21T14:50:02;5.30;;;3.00;;
2944;SDS011;1482;51.398;7.128;2024-02-21T14:52:29;8.17;;;5.17;;
2944;SDS011;1482;51.398;7.128;2024-02-21T14:54:56;9.40;;;3.53;;
2944;SDS011;1482;51.398;7.128;2024-02-21T14:57:22;7.93;;;2.80;;
2944;SDS011;1482;51.398;7.128;2024-02-21T14:59:47;6.80;;;2.70;;
2944;SDS011;1482;51.398;7.128;2024-02-21T15:02:21;7.33;;;2.93;;